Time;durP1;ratioP1;P1;durP2;ratioP2;P2;SDS_P1;SDS_P2;PMS_P1;PMS_P2;Temp;Humidity;BMP_temperature;BMP_pressure;BME280_temperature;BME280_humidity;BME280_pressure;Samples;Min_cycle;Max_cycle;Signal;HPM_P1;HPM_P2
2022/03/08 00:01:24;;;;;;;9.43;4.30;;;;;;;;;;4991023;28;20109;-68
2022/03/08 00:03:49;;;;;;;10.65;4.65;;;;;;;;;;5009464;28;20112;-69
2022/03/08 00:06:15;;;;;;;9.82;4.95;;;;;;;;;;5009438;28;20034;-68
2022/03/08 00:08:42;;;;;;;9.35;5.18;;;;;;;;;;5008036;28;20064;-68
2022/03/08 00:11:07;;;;;;;10.40;5.65;;;;;;;;;;5009647;28;20026;-68
2022/03/08 00:13:32;;;;;;;9.30;5.15;;;;;;;;;;5008913;28;20100;-68
2022/03/08 00:15:57;;;;;;;13.23;6.30;;;;;;;;;;5009663;28;20433;-68
2022/03/08 00:18:23;;;;;;;7.78;4.53;;;;;;;;;;5009219;28;20021;-68
2022/03/08 00:20:48;;;;;;;10.43;5.30;;;;;;;;;;5009472;28;20124;-68
2022/03/08 00:23:13;;;;;;;9.80;5.15;;;;;;;;;;5009594;28;20383;-68
2022/03/08 00:25:38;;;;;;;9.65;4.85;;;;;;;;;;5008089;28;20034;-68
2022/03/08 00:28:03;;;;;;;10.75;5.22;;;;;;;;;;5005745;28;20033;-68
2022/03/08 00:30:29;;;;;;;12.02;5.32;;;;;;;;;;5011633;28;20022;-68
2022/03/08 00:32:55;;;;;;;9.63;5.65;;;;;;;;;;4994377;28;20076;-68
2022/03/08 00:35:21;;;;;;;9.70;6.00;;;;;;;;;;5012760;28;20026;-68
2022/03/08 00:37:49;;;;;;;14.70;7.30;;;;;;;;;;5013006;28;20489;-68
2022/03/08 00:40:15;;;;;;;16.48;6.10;;;;;;;;;;5012806;28;20022;-68
2022/03/08 00:42:41;;;;;;;11.25;6.50;;;;;;;;;;5003521;28;20085;-68
2022/03/08 00:45:07;;;;;;;9.50;5.15;;;;;;;;;;5011125;28;20057;-68
2022/03/08 00:47:32;;;;;;;16.83;5.35;;;;;;;;;;5012355;28;20060;-68
2022/03/08 00:49:57;;;;;;;11.07;5.57;;;;;;;;;;5012265;28;20076;-68
2022/03/08 00:52:23;;;;;;;10.63;5.93;;;;;;;;;;5008248;28;20041;-68
2022/03/08 00:54:48;;;;;;;9.32;4.78;;;;;;;;;;5012475;28;20030;-68
2022/03/08 00:57:13;;;;;;;9.90;4.90;;;;;;;;;;5010346;28;20037;-68
2022/03/08 00:59:38;;;;;;;11.57;4.90;;;;;;;;;;5012294;28;20478;-68
2022/03/08 01:02:03;;;;;;;10.50;5.38;;;;;;;;;;5010953;28;20033;-68
2022/03/08 01:04:29;;;;;;;6.57;3.88;;;;;;;;;;4995226;28;20322;-68
2022/03/08 01:06:55;;;;;;;8.10;3.42;;;;;;;;;;5008214;28;20120;-68
2022/03/08 01:09:20;;;;;;;7.28;4.32;;;;;;;;;;5011437;28;20029;-68
2022/03/08 01:11:45;;;;;;;10.48;5.55;;;;;;;;;;5006565;28;20014;-68
2022/03/08 01:14:11;;;;;;;7.63;4.53;;;;;;;;;;5012157;28;20022;-68
2022/03/08 01:16:36;;;;;;;12.85;5.38;;;;;;;;;;5012129;28;20018;-68
2022/03/08 01:19:02;;;;;;;11.55;5.55;;;;;;;;;;5011945;28;20685;-68
2022/03/08 01:21:28;;;;;;;8.90;3.95;;;;;;;;;;5012210;28;20068;-68
2022/03/08 01:23:53;;;;;;;8.38;4.55;;;;;;;;;;5012153;28;20049;-68
2022/03/08 01:26:18;;;;;;;5.63;3.28;;;;;;;;;;5011594;28;20052;-68
2022/03/08 01:28:43;;;;;;;8.77;4.82;;;;;;;;;;5011570;28;20099;-68
2022/03/08 01:31:09;;;;;;;9.32;5.13;;;;;;;;;;5011481;28;20383;-68
2022/03/08 01:33:35;;;;;;;14.82;5.53;;;;;;;;;;5011351;28;20486;-68
2022/03/08 01:36:00;;;;;;;8.88;4.25;;;;;;;;;;5001924;28;20018;-68
2022/03/08 01:38:25;;;;;;;10.90;4.43;;;;;;;;;;5011143;28;20360;-68
2022/03/08 01:40:51;;;;;;;7.28;3.45;;;;;;;;;;5010842;28;20370;-68
2022/03/08 01:43:16;;;;;;;10.10;4.95;;;;;;;;;;5011380;28;20233;-68
2022/03/08 01:45:42;;;;;;;9.55;5.47;;;;;;;;;;5010962;28;20105;-68
2022/03/08 01:48:07;;;;;;;10.27;4.72;;;;;;;;;;5011575;28;20117;-68
2022/03/08 01:50:34;;;;;;;8.82;5.05;;;;;;;;;;5009407;28;20052;-67
2022/03/08 01:52:59;;;;;;;10.55;4.10;;;;;;;;;;5011654;28;20113;-67
2022/03/08 01:55:25;;;;;;;10.43;5.85;;;;;;;;;;5010671;28;20041;-68
2022/03/08 01:57:51;;;;;;;15.00;5.45;;;;;;;;;;5011054;28;20053;-67
2022/03/08 02:00:18;;;;;;;6.13;3.55;;;;;;;;;;5011053;28;20497;-67
2022/03/08 02:02:43;;;;;;;8.57;5.40;;;;;;;;;;5010763;28;20033;-67
2022/03/08 02:05:09;;;;;;;10.48;5.72;;;;;;;;;;5011664;28;20021;-67
2022/03/08 02:07:34;;;;;;;8.55;4.03;;;;;;;;;;5011554;28;20060;-67
2022/03/08 02:10:00;;;;;;;6.85;3.03;;;;;;;;;;5010480;28;20022;-67
2022/03/08 02:12:25;;;;;;;4.05;3.17;;;;;;;;;;5011132;28;20033;-67
2022/03/08 02:14:50;;;;;;;6.30;3.22;;;;;;;;;;5010337;28;20469;-67
2022/03/08 02:17:15;;;;;;;9.38;4.75;;;;;;;;;;5010967;28;20444;-67
2022/03/08 02:19:41;;;;;;;9.07;5.40;;;;;;;;;;5010587;28;20025;-67
2022/03/08 02:22:06;;;;;;;10.55;4.10;;;;;;;;;;5010917;28;20029;-67
2022/03/08 02:24:31;;;;;;;11.18;5.32;;;;;;;;;;5009510;28;20108;-67
2022/03/08 02:26:58;;;;;;;5.15;3.42;;;;;;;;;;5011251;28;20478;-67
2022/03/08 02:29:23;;;;;;;9.40;4.95;;;;;;;;;;5009281;28;20030;-67
2022/03/08 02:31:48;;;;;;;6.18;3.85;;;;;;;;;;5010566;28;20544;-67
2022/03/08 02:34:14;;;;;;;8.13;5.22;;;;;;;;;;5010545;28;20026;-67
2022/03/08 02:36:41;;;;;;;7.88;4.45;;;;;;;;;;5010815;28;20510;-67
2022/03/08 02:39:06;;;;;;;6.85;3.30;;;;;;;;;;5004662;28;20022;-67
2022/03/08 02:41:31;;;;;;;9.07;5.00;;;;;;;;;;5010199;28;20033;-67
2022/03/08 02:43:57;;;;;;;11.85;5.43;;;;;;;;;;5006485;28;20037;-67
2022/03/08 02:46:22;;;;;;;8.63;3.40;;;;;;;;;;5010560;28;20441;-67
2022/03/08 02:48:47;;;;;;;7.07;2.92;;;;;;;;;;5010154;28;20030;-67
2022/03/08 02:51:12;;;;;;;7.75;2.95;;;;;;;;;;5010559;28;20044;-67
2022/03/08 02:53:38;;;;;;;7.85;3.40;;;;;;;;;;5010304;28;20026;-67
2022/03/08 02:56:03;;;;;;;12.95;4.38;;;;;;;;;;4996854;28;20140;-67
2022/03/08 02:58:28;;;;;;;5.90;3.60;;;;;;;;;;5010035;28;20033;-67
2022/03/08 03:00:53;;;;;;;15.73;3.08;;;;;;;;;;5010033;28;20037;-67
2022/03/08 03:03:18;;;;;;;8.75;4.57;;;;;;;;;;5010305;28;20090;-68
2022/03/08 03:05:44;;;;;;;4.88;2.80;;;;;;;;;;5010133;28;20367;-67
2022/03/08 03:08:09;;;;;;;9.02;4.65;;;;;;;;;;5010285;28;20064;-67
2022/03/08 03:10:35;;;;;;;11.18;5.80;;;;;;;;;;5001321;28;20049;-67
2022/03/08 03:13:00;;;;;;;9.10;5.32;;;;;;;;;;5010183;28;20030;-67
2022/03/08 03:15:26;;;;;;;10.25;5.30;;;;;;;;;;5010576;28;20018;-67
2022/03/08 03:17:51;;;;;;;9.93;5.28;;;;;;;;;;5009836;28;20080;-67
2022/03/08 03:20:18;;;;;;;8.15;3.42;;;;;;;;;;5009796;28;20033;-67
2022/03/08 03:22:43;;;;;;;9.65;4.93;;;;;;;;;;5009920;28;20541;-67
2022/03/08 03:25:09;;;;;;;11.82;4.22;;;;;;;;;;5009620;28;20034;-67
2022/03/08 03:27:35;;;;;;;7.93;4.35;;;;;;;;;;5009906;28;20026;-67
2022/03/08 03:30:00;;;;;;;9.40;4.13;;;;;;;;;;5009777;28;20030;-67
2022/03/08 03:32:25;;;;;;;10.40;5.13;;;;;;;;;;5010563;28;20022;-67
2022/03/08 03:34:51;;;;;;;10.45;3.80;;;;;;;;;;5009527;28;20076;-67
2022/03/08 03:37:16;;;;;;;6.72;3.53;;;;;;;;;;5009554;28;20084;-67
2022/03/08 03:39:41;;;;;;;8.18;3.15;;;;;;;;;;5008757;28;20057;-67
2022/03/08 03:42:07;;;;;;;12.07;5.35;;;;;;;;;;5009451;28;20522;-67
2022/03/08 03:44:32;;;;;;;3.65;1.95;;;;;;;;;;5009461;28;20029;-67
2022/03/08 03:46:57;;;;;;;13.93;6.00;;;;;;;;;;5006407;28;20029;-67
2022/03/08 03:49:22;;;;;;;9.63;4.80;;;;;;;;;;5026429;28;20464;-67
2022/03/08 03:51:50;;;;;;;8.52;4.75;;;;;;;;;;5008619;28;20553;-67
2022/03/08 03:54:16;;;;;;;7.80;4.72;;;;;;;;;;5007642;28;20455;-67
2022/03/08 03:56:41;;;;;;;11.23;5.95;;;;;;;;;;5009602;28;20116;-67
2022/03/08 03:59:06;;;;;;;8.55;5.03;;;;;;;;;;5009250;28;20359;-67
2022/03/08 04:01:32;;;;;;;9.02;5.15;;;;;;;;;;5009722;28;20442;-67
2022/03/08 04:03:57;;;;;;;8.55;3.40;;;;;;;;;;5012879;28;20478;-67
2022/03/08 04:06:22;;;;;;;6.03;3.25;;;;;;;;;;5013815;28;20022;-67
2022/03/08 04:08:47;;;;;;;5.22;2.92;;;;;;;;;;5012404;28;20360;-67
2022/03/08 04:11:12;;;;;;;10.90;4.13;;;;;;;;;;5013351;28;20034;-67
2022/03/08 04:13:37;;;;;;;6.80;4.10;;;;;;;;;;5011730;28;20025;-67
2022/03/08 04:16:03;;;;;;;9.13;5.13;;;;;;;;;;5013796;28;20100;-67
2022/03/08 04:18:29;;;;;;;6.22;3.63;;;;;;;;;;5013322;28;20026;-67
2022/03/08 04:20:54;;;;;;;6.55;3.33;;;;;;;;;;5012571;28;20022;-67
2022/03/08 04:23:19;;;;;;;4.85;2.58;;;;;;;;;;5012504;28;20017;-67
2022/03/08 04:25:44;;;;;;;7.55;3.63;;;;;;;;;;5013263;28;20029;-67
2022/03/08 04:28:09;;;;;;;8.55;3.67;;;;;;;;;;5013011;28;20068;-67
2022/03/08 04:30:35;;;;;;;8.75;3.90;;;;;;;;;;5013425;28;20029;-67
2022/03/08 04:33:00;;;;;;;12.05;5.53;;;;;;;;;;5012400;28;20014;-67
2022/03/08 04:35:25;;;;;;;10.07;4.88;;;;;;;;;;4994016;28;20030;-67
2022/03/08 04:37:50;;;;;;;10.77;5.40;;;;;;;;;;5011548;28;20045;-67
2022/03/08 04:40:16;;;;;;;9.02;4.93;;;;;;;;;;5012824;28;20030;-67
2022/03/08 04:42:41;;;;;;;10.13;5.13;;;;;;;;;;5012806;28;20036;-67
2022/03/08 04:45:07;;;;;;;12.15;5.60;;;;;;;;;;5012818;28;20033;-67
2022/03/08 04:47:35;;;;;;;11.23;5.50;;;;;;;;;;5012681;28;20026;-67
2022/03/08 04:50:00;;;;;;;8.98;4.53;;;;;;;;;;5011986;28;20516;-67
2022/03/08 04:56:01;;;;;;;12.05;5.63;;;;;;;;;;4914161;29;20043;-86
2022/03/08 05:01:52;;;;;;;6.82;3.75;;;;;;;;;;4903824;29;20036;-85
2022/03/08 05:04:38;;;;;;;10.02;5.68;;;;;;;;;;4894587;29;20032;-85
2022/03/08 05:07:56;;;;;;;11.32;5.13;;;;;;;;;;4901343;29;20126;-85
2022/03/08 05:13:28;;;;;;;;;;;;;;;;;;;;;
2022/03/08 05:16:06;;;;;;;6.90;4.03;;;;;;;;;;4894056;29;20535;-85
2022/03/08 05:19:17;;;;;;;12.52;5.80;;;;;;;;;;4879696;29;20045;-85
2022/03/08 05:21:40;;;;;;;12.65;5.13;;;;;;;;;;4908478;29;20499;-85
2022/03/08 05:24:09;;;;;;;9.43;3.88;;;;;;;;;;4888569;29;20071;-85
2022/03/08 05:26:56;;;;;;;13.70;3.47;;;;;;;;;;4909578;29;20036;-85
2022/03/08 05:29:24;;;;;;;6.80;3.53;;;;;;;;;;4896605;29;20068;-84
2022/03/08 05:32:24;;;;;;;;;;;;;;;;;;;;;
2022/03/08 05:38:19;;;;;;;6.43;3.70;;;;;;;;;;4882821;29;20060;-87
2022/03/08 05:40:52;;;;;;;14.00;5.63;;;;;;;;;;4909669;29;20640;-86
2022/03/08 05:46:55;;;;;;;11.07;4.55;;;;;;;;;;4953293;28;20030;-85
2022/03/08 05:49:43;;;;;;;;;;;;;;;;;;;;;
2022/03/08 05:52:21;;;;;;;14.02;4.70;;;;;;;;;;4971720;28;20018;-87
2022/03/08 05:58:26;;;;;;;12.00;5.47;;;;;;;;;;4931019;29;20587;-85
2022/03/08 06:14:31;;;;;;;;;;;;;;;;;;;;;
2022/03/08 06:20:16;;;;;;;26.58;7.25;;;;;;;;;;4969149;28;20497;-86
2022/03/08 06:29:05;;;;;;;10.27;4.43;;;;;;;;;;5025642;28;20034;-85
2022/03/08 06:35:17;;;;;;;6.43;3.67;;;;;;;;;;5022150;28;20021;-85
2022/03/08 06:41:15;;;;;;;;;;;;;;;;;;;;;
2022/03/08 06:46:08;;;;;;;9.23;5.30;;;;;;;;;;5006906;28;20109;-65
2022/03/08 06:48:34;;;;;;;7.45;4.10;;;;;;;;;;5008210;28;20025;-65
2022/03/08 06:50:59;;;;;;;11.15;3.25;;;;;;;;;;5006310;28;20026;-65
2022/03/08 06:53:25;;;;;;;16.52;6.53;;;;;;;;;;5004289;28;20073;-65
2022/03/08 06:55:50;;;;;;;8.75;3.38;;;;;;;;;;5008204;28;20108;-65
2022/03/08 06:58:15;;;;;;;5.05;2.88;;;;;;;;;;5008034;28;20037;-66
2022/03/08 07:00:40;;;;;;;8.68;3.88;;;;;;;;;;5007348;28;20026;-65
2022/03/08 07:03:05;;;;;;;6.40;3.97;;;;;;;;;;5008728;28;20057;-66
2022/03/08 07:05:32;;;;;;;11.77;5.70;;;;;;;;;;5010192;28;20052;-66
2022/03/08 07:07:57;;;;;;;12.45;5.00;;;;;;;;;;5007841;28;20640;-66
2022/03/08 07:10:22;;;;;;;9.18;5.50;;;;;;;;;;5007750;28;20018;-65
2022/03/08 07:12:47;;;;;;;6.32;2.97;;;;;;;;;;5008785;28;20014;-65
2022/03/08 07:15:14;;;;;;;6.63;3.63;;;;;;;;;;5010377;28;20058;-65
2022/03/08 07:17:43;;;;;;;9.80;4.15;;;;;;;;;;5010259;28;20076;-65
2022/03/08 07:20:09;;;;;;;5.47;3.38;;;;;;;;;;5009846;28;20091;-65
2022/03/08 07:22:36;;;;;;;9.35;4.53;;;;;;;;;;5010534;28;20033;-65
2022/03/08 07:25:01;;;;;;;8.30;4.13;;;;;;;;;;5007503;28;20534;-65
2022/03/08 07:27:26;;;;;;;8.68;4.35;;;;;;;;;;5010364;28;20026;-65
2022/03/08 07:29:51;;;;;;;11.10;4.63;;;;;;;;;;5009265;28;20026;-66
2022/03/08 07:32:17;;;;;;;11.20;5.13;;;;;;;;;;5009515;28;20392;-65
2022/03/08 07:34:42;;;;;;;11.48;5.22;;;;;;;;;;5010074;28;20101;-65
2022/03/08 07:37:07;;;;;;;15.30;4.53;;;;;;;;;;5010012;28;20018;-65
2022/03/08 07:39:32;;;;;;;8.68;3.88;;;;;;;;;;5010793;28;20377;-65
2022/03/08 07:41:58;;;;;;;14.43;4.00;;;;;;;;;;5013550;28;20045;-65
2022/03/08 07:44:23;;;;;;;12.27;4.27;;;;;;;;;;5014186;28;20273;-64
2022/03/08 07:46:48;;;;;;;10.45;5.75;;;;;;;;;;5014334;28;20685;-64
2022/03/08 07:49:13;;;;;;;8.98;4.82;;;;;;;;;;5011509;28;20441;-64
2022/03/08 07:51:38;;;;;;;8.23;5.53;;;;;;;;;;5012909;28;20022;-64
2022/03/08 07:54:04;;;;;;;10.40;4.80;;;;;;;;;;5012825;28;20024;-64
2022/03/08 07:56:29;;;;;;;8.07;5.25;;;;;;;;;;5013245;28;20014;-64
2022/03/08 07:58:56;;;;;;;8.65;4.35;;;;;;;;;;5013867;28;20622;-64
2022/03/08 08:01:21;;;;;;;7.55;5.13;;;;;;;;;;5012731;28;20088;-65
2022/03/08 08:03:46;;;;;;;6.15;2.78;;;;;;;;;;5013510;28;20453;-65
2022/03/08 08:06:11;;;;;;;8.50;3.43;;;;;;;;;;5012352;28;20109;-65
2022/03/08 08:08:36;;;;;;;9.45;4.13;;;;;;;;;;5012796;28;20276;-64
2022/03/08 08:11:02;;;;;;;8.43;4.38;;;;;;;;;;5013045;28;20029;-65
2022/03/08 08:13:27;;;;;;;14.90;3.65;;;;;;;;;;5013446;28;20029;-66
2022/03/08 08:15:52;;;;;;;7.68;4.15;;;;;;;;;;5011867;28;20052;-64
2022/03/08 08:18:17;;;;;;;8.88;4.07;;;;;;;;;;4995775;28;20113;-65
2022/03/08 08:20:42;;;;;;;12.93;4.73;;;;;;;;;;5011713;28;20038;-64
2022/03/08 08:23:08;;;;;;;8.13;5.38;;;;;;;;;;5016918;28;20347;-65
2022/03/08 08:25:33;;;;;;;12.27;3.43;;;;;;;;;;5011788;28;20190;-65
2022/03/08 08:27:58;;;;;;;5.53;3.30;;;;;;;;;;5013123;28;20760;-66
2022/03/08 08:30:23;;;;;;;11.80;5.38;;;;;;;;;;5012725;28;20289;-65
2022/03/08 08:32:50;;;;;;;7.22;3.80;;;;;;;;;;5013527;28;20112;-65
2022/03/08 08:35:16;;;;;;;11.23;5.13;;;;;;;;;;5013407;28;20438;-65
2022/03/08 08:37:41;;;;;;;5.43;3.45;;;;;;;;;;5013004;28;20025;-66
2022/03/08 08:40:07;;;;;;;10.73;5.78;;;;;;;;;;5010861;28;20109;-65
2022/03/08 08:42:32;;;;;;;9.60;5.38;;;;;;;;;;5012908;28;20421;-65
2022/03/08 08:44:57;;;;;;;7.72;4.60;;;;;;;;;;5013078;28;20318;-65
2022/03/08 08:47:23;;;;;;;11.45;3.40;;;;;;;;;;5013419;28;20084;-64
2022/03/08 08:49:48;;;;;;;2.50;2.03;;;;;;;;;;5012840;28;20017;-66
2022/03/08 08:52:13;;;;;;;7.33;4.50;;;;;;;;;;5010237;28;20072;-65
2022/03/08 08:54:38;;;;;;;10.60;5.47;;;;;;;;;;5007170;28;20301;-66
2022/03/08 08:57:04;;;;;;;5.85;2.97;;;;;;;;;;5008037;28;20245;-66
2022/03/08 08:59:29;;;;;;;7.75;3.22;;;;;;;;;;4993191;28;20093;-66
2022/03/08 09:01:54;;;;;;;11.37;5.30;;;;;;;;;;5003592;28;20080;-66
2022/03/08 09:04:19;;;;;;;5.70;3.30;;;;;;;;;;5011933;28;20280;-66
2022/03/08 09:06:44;;;;;;;5.80;4.30;;;;;;;;;;5012766;28;20296;-66
2022/03/08 09:09:10;;;;;;;3.70;2.10;;;;;;;;;;5011968;28;20366;-65
2022/03/08 09:11:36;;;;;;;10.45;4.72;;;;;;;;;;5012743;28;20022;-65
2022/03/08 09:14:02;;;;;;;7.10;3.03;;;;;;;;;;4998292;28;20023;-66
2022/03/08 09:16:27;;;;;;;2.42;1.73;;;;;;;;;;4993088;28;20026;-65
2022/03/08 09:18:53;;;;;;;6.00;2.90;;;;;;;;;;4993631;28;20105;-65
2022/03/08 09:21:18;;;;;;;5.57;3.65;;;;;;;;;;4993072;28;20618;-66
2022/03/08 09:23:43;;;;;;;10.27;5.20;;;;;;;;;;5010875;28;20100;-65
2022/03/08 09:26:08;;;;;;;5.90;4.07;;;;;;;;;;5012712;28;20265;-65
2022/03/08 09:28:34;;;;;;;5.57;2.50;;;;;;;;;;5012209;28;20245;-65
2022/03/08 09:30:59;;;;;;;11.15;3.47;;;;;;;;;;5012360;28;20030;-65
2022/03/08 09:33:25;;;;;;;10.15;4.10;;;;;;;;;;5019093;28;20108;-65
2022/03/08 09:35:50;;;;;;;10.55;4.78;;;;;;;;;;5012093;28;20454;-66
2022/03/08 09:38:15;;;;;;;6.75;4.05;;;;;;;;;;5011956;28;20018;-64
2022/03/08 09:40:40;;;;;;;6.77;3.13;;;;;;;;;;5011879;28;20424;-65
2022/03/08 09:43:06;;;;;;;5.55;2.70;;;;;;;;;;5012370;28;20265;-65
2022/03/08 09:45:31;;;;;;;6.63;2.97;;;;;;;;;;5011952;28;20026;-65
2022/03/08 09:47:56;;;;;;;4.45;2.55;;;;;;;;;;5011651;28;20018;-65
2022/03/08 09:50:21;;;;;;;8.57;4.47;;;;;;;;;;5010587;28;20302;-65
2022/03/08 09:52:46;;;;;;;6.93;2.75;;;;;;;;;;5004762;28;20026;-66
2022/03/08 09:55:14;;;;;;;3.97;2.95;;;;;;;;;;4997162;28;20026;-65
2022/03/08 09:57:39;;;;;;;5.90;3.13;;;;;;;;;;4998793;28;20061;-65
2022/03/08 10:00:05;;;;;;;6.07;4.00;;;;;;;;;;5010705;28;20077;-64
2022/03/08 10:02:42;;;;;;;10.13;4.50;;;;;;;;;;5008453;28;20021;-64
2022/03/08 10:05:07;;;;;;;3.22;1.98;;;;;;;;;;4992239;28;20022;-65
2022/03/08 10:07:32;;;;;;;5.53;3.35;;;;;;;;;;4999838;28;20032;-65
2022/03/08 10:09:59;;;;;;;7.22;3.70;;;;;;;;;;5009571;28;20029;-64
2022/03/08 10:12:25;;;;;;;10.32;2.78;;;;;;;;;;5011421;28;20027;-65
2022/03/08 10:14:50;;;;;;;6.13;3.40;;;;;;;;;;5011625;28;20024;-64
2022/03/08 10:17:34;;;;;;;7.30;2.60;;;;;;;;;;5008987;28;20022;-65
2022/03/08 10:19:59;;;;;;;8.90;3.63;;;;;;;;;;5006238;28;20088;-65
2022/03/08 10:22:26;;;;;;;6.65;3.88;;;;;;;;;;5011346;28;20430;-65
2022/03/08 10:24:52;;;;;;;8.10;4.78;;;;;;;;;;5010504;28;20030;-64
2022/03/08 10:27:18;;;;;;;5.80;3.67;;;;;;;;;;5010889;28;20025;-64
2022/03/08 10:29:45;;;;;;;4.68;2.95;;;;;;;;;;5007567;28;20025;-65
2022/03/08 10:32:16;;;;;;;8.95;3.47;;;;;;;;;;5009056;28;20025;-66
2022/03/08 10:34:42;;;;;;;4.72;2.53;;;;;;;;;;5011055;28;20018;-64
2022/03/08 10:37:17;;;;;;;6.65;4.50;;;;;;;;;;5017417;28;20013;-65
2022/03/08 10:39:53;;;;;;;6.00;2.53;;;;;;;;;;5010596;28;20029;-64
2022/03/08 10:42:25;;;;;;;11.57;3.10;;;;;;;;;;4994613;28;20431;-64
2022/03/08 10:44:51;;;;;;;4.97;3.40;;;;;;;;;;5010656;28;20029;-65
2022/03/08 10:47:17;;;;;;;4.35;2.55;;;;;;;;;;5009212;28;20033;-65
2022/03/08 10:49:50;;;;;;;7.20;3.22;;;;;;;;;;5010099;28;20026;-65
2022/03/08 10:52:15;;;;;;;9.27;4.97;;;;;;;;;;5010331;28;20026;-64
2022/03/08 10:54:40;;;;;;;5.88;3.63;;;;;;;;;;5010946;28;20474;-65
2022/03/08 10:57:07;;;;;;;5.57;3.60;;;;;;;;;;5010112;28;20383;-65
2022/03/08 10:59:33;;;;;;;5.28;2.78;;;;;;;;;;5010296;28;20838;-65
2022/03/08 11:02:04;;;;;;;3.83;2.20;;;;;;;;;;5001001;28;20040;-66
2022/03/08 11:04:29;;;;;;;8.02;3.72;;;;;;;;;;5008334;28;20022;-65
2022/03/08 11:06:57;;;;;;;7.20;3.63;;;;;;;;;;5010153;28;20481;-65
2022/03/08 11:09:22;;;;;;;6.82;3.70;;;;;;;;;;5010148;28;20670;-65
2022/03/08 11:11:48;;;;;;;7.25;3.22;;;;;;;;;;5010123;28;20052;-65
2022/03/08 11:14:14;;;;;;;4.95;2.67;;;;;;;;;;5010064;28;20524;-66
2022/03/08 11:16:39;;;;;;;6.18;2.80;;;;;;;;;;5010290;28;20029;-65
2022/03/08 11:19:05;;;;;;;10.65;4.95;;;;;;;;;;5001937;28;20022;-68
2022/03/08 11:21:31;;;;;;;8.93;4.47;;;;;;;;;;5010029;28;20018;-66
2022/03/08 11:23:57;;;;;;;5.70;3.53;;;;;;;;;;5009119;28;20022;-65
2022/03/08 11:26:23;;;;;;;4.88;2.95;;;;;;;;;;5009401;28;20018;-65
2022/03/08 11:28:48;;;;;;;7.43;4.88;;;;;;;;;;5018915;22;20093;-86
2022/03/08 11:31:25;;;;;;;6.63;4.70;;;;;;;;;;5003281;28;20425;-86
2022/03/08 11:33:59;;;;;;;8.45;3.58;;;;;;;;;;5029121;28;20189;-89
2022/03/08 11:36:36;;;;;;;5.10;2.83;;;;;;;;;;5011986;28;20057;-83
2022/03/08 11:39:20;;;;;;;10.00;4.72;;;;;;;;;;5009488;28;20018;-85
2022/03/08 11:41:47;;;;;;;6.82;4.03;;;;;;;;;;5029121;28;20013;-86
2022/03/08 11:44:32;;;;;;;10.07;5.88;;;;;;;;;;5028916;28;20017;-87
2022/03/08 11:47:09;;;;;;;5.97;3.90;;;;;;;;;;5027826;28;20512;-86
2022/03/08 11:49:43;;;;;;;3.28;2.05;;;;;;;;;;5009556;28;20036;-82
2022/03/08 11:52:10;;;;;;;6.90;3.80;;;;;;;;;;5009843;28;20355;-86
2022/03/08 11:54:36;;;;;;;7.25;4.20;;;;;;;;;;5011939;28;20017;-86
2022/03/08 11:57:04;;;;;;;12.35;4.47;;;;;;;;;;5011626;28;20029;-89
2022/03/08 11:59:29;;;;;;;7.93;4.28;;;;;;;;;;5024870;28;20051;-86
2022/03/08 12:01:55;;;;;;;5.53;3.95;;;;;;;;;;5012652;28;20077;-85
2022/03/08 12:04:20;;;;;;;6.85;4.45;;;;;;;;;;5029296;28;20064;-85
2022/03/08 12:06:50;;;;;;;5.45;3.60;;;;;;;;;;5013141;28;20422;-84
2022/03/08 12:09:18;;;;;;;6.72;4.60;;;;;;;;;;5037074;28;20026;-87
2022/03/08 12:12:03;;;;;;;10.43;3.72;;;;;;;;;;5010616;28;20049;-87
2022/03/08 12:14:36;;;;;;;11.05;3.33;;;;;;;;;;5033017;28;20036;-83
2022/03/08 12:17:10;;;;;;;8.20;4.28;;;;;;;;;;5009070;28;20068;-87
2022/03/08 12:19:37;;;;;;;14.02;4.93;;;;;;;;;;5009425;28;20545;-82
2022/03/08 12:22:07;;;;;;;6.57;3.47;;;;;;;;;;5039242;28;20075;-82
2022/03/08 12:24:38;;;;;;;5.70;3.83;;;;;;;;;;5010903;28;20515;-84
2022/03/08 12:27:03;;;;;;;;;;;;;;;;;;5012234;28;20029;-82
2022/03/08 12:29:30;;;;;;;9.97;5.17;;;;;;;;;;5035444;28;20366;-85
2022/03/08 12:31:58;;;;;;;7.85;4.53;;;;;;;;;;5042387;28;20294;-84
2022/03/08 12:34:35;;;;;;;8.63;4.70;;;;;;;;;;5050034;28;20052;-83
2022/03/08 12:37:03;;;;;;;15.02;4.85;;;;;;;;;;5048250;28;20071;-86
2022/03/08 12:39:47;;;;;;;5.43;3.72;;;;;;;;;;5028125;28;20029;-83
2022/03/08 12:42:36;;;;;;;8.35;4.53;;;;;;;;;;5016678;28;20032;-88
2022/03/08 12:45:04;;;;;;;11.63;3.85;;;;;;;;;;5006676;28;20095;-83
2022/03/08 12:47:31;;;;;;;7.25;3.70;;;;;;;;;;5012738;28;20029;-85
2022/03/08 12:49:59;;;;;;;4.65;2.92;;;;;;;;;;5011794;28;20037;-83
2022/03/08 12:52:26;;;;;;;8.20;3.97;;;;;;;;;;5012545;28;20033;-83
2022/03/08 12:54:54;;;;;;;12.15;4.13;;;;;;;;;;5013682;28;20123;-83
2022/03/08 12:57:19;;;;;;;8.15;3.20;;;;;;;;;;5031047;28;20025;-84
2022/03/08 12:59:46;;;;;;;6.60;4.25;;;;;;;;;;5013512;28;20025;-82
2022/03/08 13:02:12;;;;;;;7.25;3.63;;;;;;;;;;5033528;28;20017;-86
2022/03/08 13:04:41;;;;;;;8.57;3.92;;;;;;;;;;5031595;28;20079;-87
2022/03/08 13:07:14;;;;;;;4.85;3.25;;;;;;;;;;5030491;28;20389;-88
2022/03/08 13:09:49;;;;;;;6.72;3.53;;;;;;;;;;5011785;28;20026;-88
2022/03/08 13:12:18;;;;;;;5.68;3.70;;;;;;;;;;5028343;28;20029;-87
2022/03/08 13:14:44;;;;;;;10.40;2.65;;;;;;;;;;5011536;28;20017;-84
2022/03/08 13:17:09;;;;;;;7.72;3.80;;;;;;;;;;5028450;28;20598;-85
2022/03/08 13:19:40;;;;;;;5.70;3.97;;;;;;;;;;5029819;28;20124;-89
2022/03/08 13:22:14;;;;;;;9.10;5.30;;;;;;;;;;5012040;28;20264;-84
2022/03/08 13:24:42;;;;;;;5.15;3.15;;;;;;;;;;5028903;28;20497;-85
2022/03/08 13:27:07;;;;;;;8.15;4.50;;;;;;;;;;5010823;28;20190;-88
2022/03/08 13:29:33;;;;;;;5.45;2.90;;;;;;;;;;5029850;28;20021;-84
2022/03/08 13:32:02;;;;;;;7.50;2.53;;;;;;;;;;5020260;28;20048;-87
2022/03/08 13:34:29;;;;;;;6.93;3.65;;;;;;;;;;5030608;28;20113;-83
2022/03/08 13:36:57;;;;;;;5.47;2.72;;;;;;;;;;5028591;28;20022;-82
2022/03/08 13:39:23;;;;;;;10.48;4.53;;;;;;;;;;5029127;28;20034;-87
2022/03/08 13:41:48;;;;;;;4.10;2.70;;;;;;;;;;5018600;28;20161;-86
2022/03/08 13:44:14;;;;;;;6.45;3.17;;;;;;;;;;5029699;28;20046;-84
2022/03/08 13:46:41;;;;;;;3.95;2.53;;;;;;;;;;5032162;28;20037;-88
2022/03/08 13:49:06;;;;;;;6.32;4.15;;;;;;;;;;5019206;28;20120;-85
2022/03/08 13:51:33;;;;;;;10.37;2.33;;;;;;;;;;5033097;28;20048;-87
2022/03/08 13:53:59;;;;;;;7.90;4.18;;;;;;;;;;5035064;28;20740;-88
2022/03/08 13:56:25;;;;;;;5.97;3.33;;;;;;;;;;5029095;28;20026;-87
2022/03/08 13:58:53;;;;;;;8.02;4.18;;;;;;;;;;5030821;28;20091;-84
2022/03/08 14:01:24;;;;;;;6.80;3.83;;;;;;;;;;5011820;28;20021;-84
2022/03/08 14:03:51;;;;;;;2.83;2.03;;;;;;;;;;5010545;28;20022;-84
2022/03/08 14:06:16;;;;;;;9.52;4.20;;;;;;;;;;5029379;28;20278;-83
2022/03/08 14:08:41;;;;;;;12.73;4.03;;;;;;;;;;5028597;28;20108;-84
2022/03/08 14:11:25;;;;;;;7.33;4.10;;;;;;;;;;5011811;28;20053;-85
2022/03/08 14:13:53;;;;;;;7.32;4.68;;;;;;;;;;5012362;28;20303;-85
2022/03/08 14:16:18;;;;;;;5.70;3.90;;;;;;;;;;5010881;28;20445;-88
2022/03/08 14:18:54;;;;;;;6.55;3.55;;;;;;;;;;5010929;28;20021;-84
2022/03/08 14:21:30;;;;;;;9.43;4.57;;;;;;;;;;5013010;28;20079;-86
2022/03/08 14:23:56;;;;;;;7.30;4.03;;;;;;;;;;5015926;28;20047;-84
2022/03/08 14:26:23;;;;;;;7.63;5.13;;;;;;;;;;5027260;28;20076;-86
2022/03/08 14:28:51;;;;;;;9.55;3.90;;;;;;;;;;5027707;28;20029;-85
2022/03/08 14:31:17;;;;;;;7.10;3.83;;;;;;;;;;5010434;28;20022;-85
2022/03/08 14:33:55;;;;;;;9.13;4.82;;;;;;;;;;5012855;28;20021;-89
2022/03/08 14:36:27;;;;;;;11.90;4.82;;;;;;;;;;5010031;28;20473;-87
2022/03/08 14:38:52;;;;;;;7.00;5.05;;;;;;;;;;5010596;28;20018;-85
2022/03/08 14:41:23;;;;;;;10.03;3.67;;;;;;;;;;5029311;28;20017;-82
2022/03/08 14:43:49;;;;;;;6.18;3.38;;;;;;;;;;5026084;28;20337;-83
2022/03/08 14:46:14;;;;;;;7.20;4.13;;;;;;;;;;5027507;28;20021;-85
2022/03/08 14:48:39;;;;;;;9.68;5.80;;;;;;;;;;5029800;28;20740;-87
2022/03/08 14:51:04;;;;;;;6.70;3.72;;;;;;;;;;5011625;28;20179;-85
2022/03/08 14:53:30;;;;;;;7.18;4.82;;;;;;;;;;5028428;28;20076;-86
2022/03/08 14:55:56;;;;;;;9.43;4.75;;;;;;;;;;5027882;28;20100;-87
2022/03/08 14:58:21;;;;;;;9.73;6.03;;;;;;;;;;5023113;28;20553;-85
2022/03/08 15:00:46;;;;;;;6.03;3.37;;;;;;;;;;5010256;28;20060;-87
2022/03/08 15:03:12;;;;;;;7.43;4.72;;;;;;;;;;5011189;28;20279;-87
2022/03/08 15:05:38;;;;;;;9.05;4.03;;;;;;;;;;5012025;28;20079;-86
2022/03/08 15:08:04;;;;;;;9.88;3.10;;;;;;;;;;5010680;28;20041;-85
2022/03/08 15:10:29;;;;;;;14.00;3.65;;;;;;;;;;5031944;28;20021;-85
2022/03/08 15:12:54;;;;;;;9.20;4.22;;;;;;;;;;5010170;28;20028;-84
2022/03/08 15:15:20;;;;;;;10.73;5.33;;;;;;;;;;5031467;28;20032;-85
2022/03/08 15:17:45;;;;;;;7.90;4.40;;;;;;;;;;5014929;28;21293;-88
2022/03/08 15:20:11;;;;;;;7.60;3.92;;;;;;;;;;5030080;28;20022;-88
2022/03/08 15:22:36;;;;;;;7.13;4.18;;;;;;;;;;5011144;28;20037;-89
2022/03/08 15:25:03;;;;;;;14.50;5.60;;;;;;;;;;5029878;28;20021;-85
2022/03/08 15:27:29;;;;;;;8.82;5.10;;;;;;;;;;5011264;28;20029;-87
2022/03/08 15:29:54;;;;;;;8.13;4.75;;;;;;;;;;5011127;28;20022;-86
2022/03/08 15:32:19;;;;;;;7.53;4.13;;;;;;;;;;5008812;28;20053;-89
2022/03/08 15:34:44;;;;;;;5.93;3.22;;;;;;;;;;5027818;28;20432;-85
2022/03/08 15:37:09;;;;;;;15.25;5.68;;;;;;;;;;5009951;28;20017;-85